Time;durP1;ratioP1;P1;durP2;ratioP2;P2;SDS_P1;SDS_P2;PMS_P1;PMS_P2;Temp;Humidity;BMP_temperature;BMP_pressure;BME280_temperature;BME280_humidity;BME280_pressure;Samples;Min_cycle;Max_cycle;Signal;HPM_P1;HPM_P2
2023/08/25 00:00:30;;;;;;;;;;;24.10;85.40;;;;;;4172571;28;20056;-40
2023/08/25 00:03:11;;;;;;;;;;;24.10;84.60;;;;;;4172154;28;19932;-40
2023/08/25 00:05:52;;;;;;;;;;;24.10;84.60;;;;;;4156018;28;19967;-40
2023/08/25 00:08:36;;;;;;;;;;;24.10;84.60;;;;;;4156064;28;19936;-39
2023/08/25 00:11:18;;;;;;;;;;;24.10;84.70;;;;;;4176369;28;19970;-40
2023/08/25 00:14:00;;;;;;;;;;;24.10;84.70;;;;;;4205649;28;20066;-40
2023/08/25 00:16:40;;;;;;;;;;;24.10;85.70;;;;;;4201358;28;20307;-40
2023/08/25 00:19:22;;;;;;;;;;;24.10;84.90;;;;;;4188332;28;20386;-40
2023/08/25 00:22:02;;;;;;;;;;;24.10;84.90;;;;;;4188833;28;19974;-40
2023/08/25 00:24:44;;;;;;;;;;;24.10;84.90;;;;;;4187380;28;20394;-40
2023/08/25 00:27:25;;;;;;;;;;;24.10;84.90;;;;;;4181440;28;20295;-40
2023/08/25 00:30:10;;;;;;;;;;;24.10;85.00;;;;;;4204265;28;19947;-38
2023/08/25 00:32:51;;;;;;;;;;;24.10;85.80;;;;;;4204003;28;19931;-39
2023/08/25 00:35:31;;;;;;;;;;;24.10;85.00;;;;;;4205280;28;19980;-38
2023/08/25 00:38:12;;;;;;;;;;;24.10;85.00;;;;;;4203476;28;20032;-40
2023/08/25 00:40:55;;;;;;;;;;;24.10;85.00;;;;;;4191658;28;19973;-39
2023/08/25 00:43:35;;;;;;;;;;;24.10;85.10;;;;;;4196889;28;19932;-38
2023/08/25 00:46:18;;;;;;;;;;;24.10;85.10;;;;;;4187484;28;20304;-40
2023/08/25 00:48:59;;;;;;;;;;;24.10;86.00;;;;;;4171482;28;20390;-39
2023/08/25 00:51:39;;;;;;;;;;;24.10;85.10;;;;;;4187268;28;19969;-39
2023/08/25 00:54:21;;;;;;;;;;;24.00;85.00;;;;;;4171648;28;19935;-38
2023/08/25 00:57:04;;;;;;;;;;;24.00;85.00;;;;;;4182384;28;19935;-39
2023/08/25 00:59:46;;;;;;;;;;;24.10;85.10;;;;;;4179239;28;19936;-39
2023/08/25 01:02:26;;;;;;;;;;;24.00;85.10;;;;;;4187023;28;20482;-38
2023/08/25 01:05:08;;;;;;;;;;;24.00;85.10;;;;;;4186756;28;20063;-38
2023/08/25 01:07:49;;;;;;;;;;;24.00;85.20;;;;;;4186176;28;19962;-40
2023/08/25 01:10:38;;;;;;;;;;;24.00;85.20;;;;;;4187701;28;20021;-38
2023/08/25 01:13:24;;;;;;;;;;;24.00;85.30;;;;;;4187718;28;19933;-38
2023/08/25 01:16:06;;;;;;;;;;;24.00;85.30;;;;;;4184887;28;19981;-39
2023/08/25 01:18:47;;;;;;;;;;;24.00;85.30;;;;;;4170385;28;19935;-38
2023/08/25 01:21:27;;;;;;;;;;;24.00;85.30;;;;;;4170973;28;19931;-38
2023/08/25 01:24:11;;;;;;;;;;;24.00;85.40;;;;;;4171615;28;20307;-38
2023/08/25 01:26:53;;;;;;;;;;;24.00;85.40;;;;;;4169934;28;19935;-38
2023/08/25 01:29:34;;;;;;;;;;;23.90;85.40;;;;;;4187441;27;19931;-38
2023/08/25 01:32:15;;;;;;;;;;;24.00;85.60;;;;;;4189236;28;19931;-40
2023/08/25 01:34:56;;;;;;;;;;;24.00;86.60;;;;;;4187423;28;19935;-40
2023/08/25 01:37:39;;;;;;;;;;;23.90;85.70;;;;;;4187526;28;20058;-40
2023/08/25 01:40:22;;;;;;;;;;;23.90;85.70;;;;;;4187950;28;20268;-40
2023/08/25 01:43:07;;;;;;;;;;;23.90;85.70;;;;;;4169873;28;20402;-40
2023/08/25 01:45:49;;;;;;;;;;;23.90;86.60;;;;;;4173867;28;19932;-40
2023/08/25 01:48:31;;;;;;;;;;;23.90;86.60;;;;;;4183742;28;19932;-40
2023/08/25 01:51:12;;;;;;;;;;;23.90;86.70;;;;;;4186120;28;19939;-40
2023/08/25 01:53:54;;;;;;;;;;;23.90;85.90;;;;;;4199780;27;20298;-41
2023/08/25 01:56:35;;;;;;;;;;;23.90;85.90;;;;;;4203689;28;19978;-40
2023/08/25 01:59:18;;;;;;;;;;;23.90;85.90;;;;;;4176664;28;19932;-40
2023/08/25 02:01:58;;;;;;;;;;;23.90;85.90;;;;;;4191398;28;19940;-39
2023/08/25 02:04:39;;;;;;;;;;;23.90;85.90;;;;;;4195588;28;19947;-39
2023/08/25 02:07:20;;;;;;;;;;;23.90;85.90;;;;;;4176522;28;20018;-38
2023/08/25 02:10:02;;;;;;;;;;;23.90;85.90;;;;;;4198661;28;19935;-39
2023/08/25 02:12:43;;;;;;;;;;;23.90;86.00;;;;;;4191537;28;19936;-39
2023/08/25 02:15:25;;;;;;;;;;;23.90;86.00;;;;;;4192250;28;20389;-39
2023/08/25 02:18:06;;;;;;;;;;;23.90;86.10;;;;;;4192760;28;19935;-38
2023/08/25 02:20:47;;;;;;;;;;;23.90;86.00;;;;;;4213995;28;19935;-38
2023/08/25 02:23:28;;;;;;;;;;;23.90;86.00;;;;;;4192554;27;19970;-40
2023/08/25 02:26:09;;;;;;;;;;;23.90;86.10;;;;;;4192598;28;20442;-40
2023/08/25 02:28:49;;;;;;;;;;;23.90;86.10;;;;;;4192787;28;19931;-41
2023/08/25 02:31:31;;;;;;;;;;;23.90;86.10;;;;;;4192138;28;20337;-40
2023/08/25 02:34:13;;;;;;;;;;;23.90;86.10;;;;;;4193194;28;19951;-40
2023/08/25 02:36:53;;;;;;;;;;;23.90;86.10;;;;;;4188904;28;20512;-40
2023/08/25 02:39:34;;;;;;;;;;;23.90;86.20;;;;;;4196160;28;20059;-40
2023/08/25 02:42:15;;;;;;;;;;;23.90;86.20;;;;;;4209524;28;19966;-40
2023/08/25 02:44:56;;;;;;;;;;;23.90;86.20;;;;;;4209324;28;19931;-40
2023/08/25 02:47:38;;;;;;;;;;;23.90;86.20;;;;;;4202524;27;19931;-40
2023/08/25 02:50:19;;;;;;;;;;;23.90;86.90;;;;;;4193162;28;20034;-40
2023/08/25 02:53:00;;;;;;;;;;;23.80;86.20;;;;;;4191477;28;19936;-40
2023/08/25 02:55:41;;;;;;;;;;;23.90;86.20;;;;;;4209222;28;19931;-40
2023/08/25 02:58:22;;;;;;;;;;;23.80;87.00;;;;;;4209025;28;20470;-40
2023/08/25 03:01:10;;;;;;;;;;;23.80;86.20;;;;;;4174963;28;21092;-40
2023/08/25 03:03:54;;;;;;;;;;;23.80;86.20;;;;;;4175830;28;19932;-40
2023/08/25 03:06:35;;;;;;;;;;;23.80;86.20;;;;;;4195749;28;19935;-40
2023/08/25 03:09:16;;;;;;;;;;;23.80;86.20;;;;;;4184209;28;20291;-40
2023/08/25 03:11:57;;;;;;;;;;;23.80;86.30;;;;;;4176943;28;20379;-39
2023/08/25 03:14:38;;;;;;;;;;;23.80;86.30;;;;;;4188950;28;20398;-38
2023/08/25 03:17:19;;;;;;;;;;;23.80;86.30;;;;;;4176928;28;20017;-39
2023/08/25 03:20:02;;;;;;;;;;;23.80;86.40;;;;;;4188450;28;20315;-39
2023/08/25 03:22:44;;;;;;;;;;;23.80;86.40;;;;;;4188057;28;19947;-41
2023/08/25 03:25:24;;;;;;;;;;;23.80;86.40;;;;;;4189325;28;20064;-41
2023/08/25 03:28:06;;;;;;;;;;;23.80;86.40;;;;;;4204869;28;20433;-41
2023/08/25 03:30:50;;;;;;;;;;;23.80;86.50;;;;;;4195055;28;19931;-40
2023/08/25 03:33:31;;;;;;;;;;;23.80;86.40;;;;;;4187701;28;20073;-40
2023/08/25 03:36:13;;;;;;;;;;;23.80;86.40;;;;;;4188645;28;20058;-40
2023/08/25 03:38:54;;;;;;;;;;;23.70;86.40;;;;;;4187899;28;19974;-40
2023/08/25 03:41:35;;;;;;;;;;;23.80;86.50;;;;;;4187982;28;19946;-41
2023/08/25 03:44:16;;;;;;;;;;;23.80;86.50;;;;;;4188130;28;20346;-41
2023/08/25 03:46:57;;;;;;;;;;;23.80;86.50;;;;;;4175933;28;20292;-42
2023/08/25 03:49:39;;;;;;;;;;;23.80;86.60;;;;;;4200511;28;19959;-42
2023/08/25 03:52:23;;;;;;;;;;;23.80;86.50;;;;;;4189215;28;20029;-41
2023/08/25 03:55:04;;;;;;;;;;;23.80;86.50;;;;;;4186924;28;19935;-41
2023/08/25 03:57:46;;;;;;;;;;;23.80;87.40;;;;;;4187614;28;19935;-41
2023/08/25 04:00:27;;;;;;;;;;;23.80;86.50;;;;;;4192298;28;19935;-41
2023/08/25 04:03:07;;;;;;;;;;;23.80;86.50;;;;;;4184736;28;19936;-41
2023/08/25 04:05:49;;;;;;;;;;;23.80;86.50;;;;;;4196121;28;19932;-41
2023/08/25 04:08:31;;;;;;;;;;;23.80;86.60;;;;;;4188806;28;19948;-41
2023/08/25 04:11:12;;;;;;;;;;;23.70;86.50;;;;;;4187715;28;19931;-42
2023/08/25 04:13:53;;;;;;;;;;;23.80;87.50;;;;;;4188799;28;19935;-40
2023/08/25 04:16:33;;;;;;;;;;;23.70;86.60;;;;;;4204584;28;20074;-40
2023/08/25 04:19:16;;;;;;;;;;;23.80;86.60;;;;;;4170149;28;19932;-40
2023/08/25 04:21:59;;;;;;;;;;;23.80;86.70;;;;;;4171412;28;19932;-43
2023/08/25 04:24:41;;;;;;;;;;;23.80;86.70;;;;;;4170498;28;20390;-39
2023/08/25 04:27:24;;;;;;;;;;;23.80;86.70;;;;;;4204167;28;19931;-39
2023/08/25 04:30:05;;;;;;;;;;;23.70;87.50;;;;;;4187185;28;19935;-39
2023/08/25 04:32:47;;;;;;;;;;;23.80;86.70;;;;;;4187904;28;19932;-39
2023/08/25 04:35:28;;;;;;;;;;;23.70;86.70;;;;;;4186962;28;19940;-39
2023/08/25 04:38:10;;;;;;;;;;;23.70;86.70;;;;;;4176432;28;19931;-38
2023/08/25 04:40:52;;;;;;;;;;;23.70;87.50;;;;;;4187181;28;19943;-39
2023/08/25 04:43:34;;;;;;;;;;;23.70;86.70;;;;;;4187070;28;19935;-39
2023/08/25 04:46:15;;;;;;;;;;;23.70;86.70;;;;;;4186870;28;19987;-40
2023/08/25 04:48:56;;;;;;;;;;;23.70;86.80;;;;;;4181016;28;19932;-39
2023/08/25 04:51:37;;;;;;;;;;;23.70;86.90;;;;;;4210428;28;20331;-40
2023/08/25 04:54:20;;;;;;;;;;;23.80;87.10;;;;;;4187437;28;20016;-39
2023/08/25 04:57:06;;;;;;;;;;;23.80;87.10;;;;;;4209603;28;20388;-40
2023/08/25 04:59:47;;;;;;;;;;;23.80;87.10;;;;;;4174044;28;19935;-40
2023/08/25 05:02:28;;;;;;;;;;;23.80;87.00;;;;;;4180993;28;20374;-42
2023/08/25 05:05:11;;;;;;;;;;;23.80;87.00;;;;;;4186753;28;20066;-42
2023/08/25 05:07:53;;;;;;;;;;;23.70;86.90;;;;;;4175510;28;19935;-42
2023/08/25 05:10:34;;;;;;;;;;;23.70;86.90;;;;;;4186697;28;19931;-41
2023/08/25 05:13:16;;;;;;;;;;;23.70;87.80;;;;;;4187217;28;19961;-43
2023/08/25 05:15:57;;;;;;;;;;;23.70;87.00;;;;;;4187393;28;19939;-44
2023/08/25 05:18:55;;;;;;;;;;;23.70;87.00;;;;;;4184272;28;19936;-42
2023/08/25 05:21:36;;;;;;;;;;;23.70;87.10;;;;;;4190316;28;20057;-41
2023/08/25 05:24:17;;;;;;;;;;;23.70;87.10;;;;;;4201204;28;19935;-42
2023/08/25 05:26:59;;;;;;;;;;;23.70;87.40;;;;;;4182926;28;19931;-46
2023/08/25 05:29:41;;;;;;;;;;;23.70;90.10;;;;;;4189738;28;19976;-41
2023/08/25 05:32:29;;;;;;;;;;;23.80;90.30;;;;;;4203616;28;20441;-41
2023/08/25 05:35:33;;;;;;;;;;;23.80;90.60;;;;;;4186179;28;19935;-39
2023/08/25 05:38:14;;;;;;;;;;;23.80;90.80;;;;;;4197206;28;19936;-40
2023/08/25 05:40:56;;;;;;;;;;;23.80;90.80;;;;;;4169780;28;20063;-39
2023/08/25 05:43:37;;;;;;;;;;;23.80;90.70;;;;;;4169930;28;20276;-39
2023/08/25 05:46:19;;;;;;;;;;;23.70;90.40;;;;;;4171224;28;19978;-39
2023/08/25 05:49:00;;;;;;;;;;;23.70;90.20;;;;;;4192633;28;19935;-39
2023/08/25 05:51:41;;;;;;;;;;;23.70;90.00;;;;;;4183075;28;19936;-44
2023/08/25 05:54:22;;;;;;;;;;;23.70;89.80;;;;;;4186256;28;19935;-39
2023/08/25 05:57:03;;;;;;;;;;;23.70;89.60;;;;;;4186006;28;19932;-39
2023/08/25 05:59:44;;;;;;;;;;;23.70;89.50;;;;;;4198106;28;19977;-39
2023/08/25 06:02:26;;;;;;;;;;;23.70;89.30;;;;;;4203428;28;20058;-39
2023/08/25 06:05:07;;;;;;;;;;;23.70;89.20;;;;;;4201541;28;19977;-39
2023/08/25 06:07:49;;;;;;;;;;;23.70;89.10;;;;;;4182085;27;19935;-39
2023/08/25 06:10:29;;;;;;;;;;;23.70;89.00;;;;;;4186665;28;19932;-39
2023/08/25 06:13:10;;;;;;;;;;;23.70;89.00;;;;;;4171415;28;19931;-39
2023/08/25 06:15:52;;;;;;;;;;;23.70;88.90;;;;;;4185833;28;19998;-40
2023/08/25 06:18:34;;;;;;;;;;;23.60;88.80;;;;;;4166503;28;20291;-39
2023/08/25 06:21:15;;;;;;;;;;;23.60;88.80;;;;;;4185912;28;19932;-39
2023/08/25 06:23:56;;;;;;;;;;;23.60;88.80;;;;;;4182559;28;19940;-39
2023/08/25 06:26:36;;;;;;;;;;;23.60;88.80;;;;;;4186967;28;20332;-40
2023/08/25 06:29:17;;;;;;;;;;;23.60;88.90;;;;;;4166924;28;20453;-40
2023/08/25 06:31:58;;;;;;;;;;;23.70;89.30;;;;;;4203510;28;19997;-40
2023/08/25 06:34:40;;;;;;;;;;;23.60;89.30;;;;;;4169637;28;20387;-41
2023/08/25 06:37:21;;;;;;;;;;;23.70;89.30;;;;;;4169765;28;20660;-40
2023/08/25 06:40:03;;;;;;;;;;;23.60;89.20;;;;;;4181952;28;20065;-40
2023/08/25 06:42:44;;;;;;;;;;;23.60;89.10;;;;;;4190416;28;19947;-40
2023/08/25 06:45:25;;;;;;;;;;;23.60;89.10;;;;;;4190014;28;20295;-41
2023/08/25 06:48:06;;;;;;;;;;;23.70;89.20;;;;;;4190297;28;19936;-40
2023/08/25 06:50:48;;;;;;;;;;;23.70;89.10;;;;;;4190167;28;19932;-40
2023/08/25 06:53:29;;;;;;;;;;;23.70;89.00;;;;;;4189136;28;19936;-40
2023/08/25 06:56:10;;;;;;;;;;;23.60;89.00;;;;;;4190078;28;19979;-40
2023/08/25 06:58:51;;;;;;;;;;;23.70;88.90;;;;;;4206685;28;20384;-46
2023/08/25 07:01:32;;;;;;;;;;;23.70;89.00;;;;;;4202821;28;19935;-40
2023/08/25 07:04:12;;;;;;;;;;;23.60;88.90;;;;;;4175282;28;19931;-40
2023/08/25 07:06:54;;;;;;;;;;;23.70;89.00;;;;;;4189963;28;20073;-40
2023/08/25 07:09:35;;;;;;;;;;;23.60;89.00;;;;;;4190035;28;19931;-40
2023/08/25 07:12:16;;;;;;;;;;;23.70;89.00;;;;;;4189871;28;20031;-40
2023/08/25 07:14:56;;;;;;;;;;;23.70;89.00;;;;;;4188172;28;19939;-39
2023/08/25 07:17:37;;;;;;;;;;;23.70;89.10;;;;;;4189890;28;19951;-39
2023/08/25 07:20:19;;;;;;;;;;;23.70;89.20;;;;;;4195215;28;19931;-39
2023/08/25 07:23:02;;;;;;;;;;;23.70;89.10;;;;;;4189589;28;20062;-40
2023/08/25 07:25:43;;;;;;;;;;;23.70;89.10;;;;;;4174542;28;19935;-40
2023/08/25 07:28:24;;;;;;;;;;;23.70;89.10;;;;;;4177569;28;19935;-40
2023/08/25 07:31:05;;;;;;;;;;;23.70;89.10;;;;;;4189473;28;19932;-40
2023/08/25 07:33:46;;;;;;;;;;;23.70;90.00;;;;;;4189511;28;20424;-40
2023/08/25 07:36:27;;;;;;;;;;;23.70;89.30;;;;;;4189501;28;20291;-40
2023/08/25 07:39:09;;;;;;;;;;;23.70;89.30;;;;;;4206113;28;20291;-40
2023/08/25 07:41:51;;;;;;;;;;;23.70;89.30;;;;;;4205726;28;19950;-40
2023/08/25 07:44:32;;;;;;;;;;;23.70;89.20;;;;;;4205702;28;20070;-38
2023/08/25 07:47:13;;;;;;;;;;;23.70;89.20;;;;;;4206193;28;20387;-39
2023/08/25 07:49:53;;;;;;;;;;;23.70;89.30;;;;;;4204337;28;19935;-39
2023/08/25 07:52:34;;;;;;;;;;;23.70;89.20;;;;;;4205053;28;19994;-40
2023/08/25 07:55:19;;;;;;;;;;;23.80;89.30;;;;;;4205182;28;19966;-39
2023/08/25 07:58:00;;;;;;;;;;;23.70;89.40;;;;;;4199031;28;20448;-39
2023/08/25 08:00:42;;;;;;;;;;;23.80;89.40;;;;;;4188829;28;20013;-38
2023/08/25 08:03:24;;;;;;;;;;;23.80;89.40;;;;;;4199355;28;19931;-38
2023/08/25 08:06:05;;;;;;;;;;;23.80;89.40;;;;;;4190155;28;20061;-39
2023/08/25 08:08:48;;;;;;;;;;;23.70;89.50;;;;;;4205396;28;19949;-41
2023/08/25 08:11:30;;;;;;;;;;;23.80;89.50;;;;;;4197380;28;19989;-41
2023/08/25 08:14:11;;;;;;;;;;;23.80;89.40;;;;;;4174042;28;19982;-40
2023/08/25 08:16:51;;;;;;;;;;;23.80;89.30;;;;;;4189140;28;20400;-40
2023/08/25 08:19:32;;;;;;;;;;;23.80;89.20;;;;;;4183011;28;19932;-40
2023/08/25 08:22:13;;;;;;;;;;;23.80;89.10;;;;;;4155806;28;20395;-41
2023/08/25 08:24:54;;;;;;;;;;;23.80;89.90;;;;;;4184663;28;19934;-41
2023/08/25 08:27:37;;;;;;;;;;;23.80;89.30;;;;;;4200905;27;20025;-40
2023/08/25 08:30:19;;;;;;;;;;;23.80;89.50;;;;;;4171086;28;19939;-40
2023/08/25 08:32:59;;;;;;;;;;;23.80;90.10;;;;;;4184914;28;19943;-39
2023/08/25 08:35:40;;;;;;;;;;;23.90;89.70;;;;;;4172918;28;20398;-39
2023/08/25 08:38:21;;;;;;;;;;;23.90;89.70;;;;;;4205087;28;19991;-39
2023/08/25 08:41:03;;;;;;;;;;;23.90;89.80;;;;;;4174572;28;19936;-39
2023/08/25 08:43:46;;;;;;;;;;;23.90;89.80;;;;;;4187966;28;19936;-39
2023/08/25 08:46:27;;;;;;;;;;;24.00;89.90;;;;;;4186458;28;20054;-39
2023/08/25 08:49:09;;;;;;;;;;;24.00;89.80;;;;;;4188549;28;19935;-38
2023/08/25 08:51:51;;;;;;;;;;;24.00;89.80;;;;;;4188063;28;19939;-38
2023/08/25 08:54:33;;;;;;;;;;;24.00;89.70;;;;;;4171431;28;19932;-39
2023/08/25 08:57:14;;;;;;;;;;;24.10;89.70;;;;;;4163633;28;20371;-38
2023/08/25 08:59:59;;;;;;;;;;;24.10;89.60;;;;;;4173663;28;20406;-38
2023/08/25 09:02:43;;;;;;;;;;;24.10;89.40;;;;;;4186422;28;19939;-38
2023/08/25 09:05:27;;;;;;;;;;;24.10;89.10;;;;;;4187615;28;19931;-38
2023/08/25 09:08:09;;;;;;;;;;;24.10;88.90;;;;;;4188339;28;19939;-38
2023/08/25 09:10:51;;;;;;;;;;;24.10;88.90;;;;;;4204322;28;20386;-40
2023/08/25 09:13:35;;;;;;;;;;;24.10;89.40;;;;;;4204434;27;20385;-40
2023/08/25 09:16:18;;;;;;;;;;;24.10;89.90;;;;;;4188751;28;19934;-39
2023/08/25 09:19:03;;;;;;;;;;;24.10;89.00;;;;;;4202980;28;20306;-38
2023/08/25 09:21:45;;;;;;;;;;;24.10;89.00;;;;;;4198054;28;19936;-39
2023/08/25 09:24:28;;;;;;;;;;;24.10;89.10;;;;;;4187637;28;19932;-39
2023/08/25 09:27:21;;;;;;;;;;;24.10;89.30;;;;;;4187201;28;20092;-39
2023/08/25 09:30:05;;;;;;;;;;;24.10;89.40;;;;;;4214919;28;25172;-39
2023/08/25 09:32:48;;;;;;;;;;;24.10;89.40;;;;;;4193164;28;19931;-39
2023/08/25 09:35:33;;;;;;;;;;;24.10;89.40;;;;;;4204140;28;19973;-39
2023/08/25 09:38:21;;;;;;;;;;;24.10;89.30;;;;;;4202958;28;19953;-42
2023/08/25 09:41:02;;;;;;;;;;;24.20;89.10;;;;;;4204608;28;20014;-41
2023/08/25 09:43:43;;;;;;;;;;;24.10;89.00;;;;;;4190585;28;19946;-42
2023/08/25 09:46:27;;;;;;;;;;;24.20;88.90;;;;;;4171299;28;19935;-39
2023/08/25 09:49:10;;;;;;;;;;;24.20;88.90;;;;;;4170949;28;19948;-38
2023/08/25 09:51:52;;;;;;;;;;;24.20;88.90;;;;;;4176051;28;19951;-38
2023/08/25 09:54:33;;;;;;;;;;;24.20;89.00;;;;;;4190382;28;19947;-38
2023/08/25 09:57:14;;;;;;;;;;;24.30;89.20;;;;;;4203354;28;19942;-38
2023/08/25 09:59:56;;;;;;;;;;;24.30;89.50;;;;;;4170494;28;19932;-39
2023/08/25 10:02:37;;;;;;;;;;;24.30;89.60;;;;;;4183123;28;19931;-38
2023/08/25 10:05:20;;;;;;;;;;;24.30;89.70;;;;;;4200782;28;19947;-39
2023/08/25 10:08:01;;;;;;;;;;;24.30;89.80;;;;;;4188890;28;19930;-38
2023/08/25 10:10:44;;;;;;;;;;;24.30;89.80;;;;;;4203426;28;20010;-37
2023/08/25 10:13:28;;;;;;;;;;;24.30;89.80;;;;;;4204358;28;20698;-38
2023/08/25 10:16:10;;;;;;;;;;;24.30;89.70;;;;;;4189900;28;20053;-36
2023/08/25 10:18:52;;;;;;;;;;;24.30;89.50;;;;;;4190061;28;19975;-38
2023/08/25 10:21:34;;;;;;;;;;;24.30;89.50;;;;;;4200663;28;19935;-39
2023/08/25 10:24:16;;;;;;;;;;;24.30;89.50;;;;;;4193378;28;20498;-39
2023/08/25 10:26:58;;;;;;;;;;;24.30;89.30;;;;;;4173222;28;19935;-39
2023/08/25 10:29:39;;;;;;;;;;;24.30;89.20;;;;;;4173548;28;20405;-39
2023/08/25 10:32:20;;;;;;;;;;;24.30;89.30;;;;;;4173981;28;20035;-43
2023/08/25 10:35:03;;;;;;;;;;;24.30;89.30;;;;;;4173435;28;19935;-42
2023/08/25 10:37:52;;;;;;;;;;;24.20;89.20;;;;;;4174106;28;19967;-39
2023/08/25 10:40:40;;;;;;;;;;;24.20;89.30;;;;;;4198572;28;19973;-42
2023/08/25 10:43:25;;;;;;;;;;;24.20;89.30;;;;;;4176891;28;19974;-41
2023/08/25 10:46:06;;;;;;;;;;;24.20;89.30;;;;;;4177051;28;19940;-41
2023/08/25 10:48:48;;;;;;;;;;;24.20;89.30;;;;;;4174083;28;19936;-38
2023/08/25 10:51:29;;;;;;;;;;;24.10;89.30;;;;;;4190592;28;19931;-39
2023/08/25 10:54:19;;;;;;;;;;;24.10;89.20;;;;;;4189535;28;19951;-38
2023/08/25 10:57:17;;;;;;;;;;;24.10;89.20;;;;;;4205230;28;20013;-39
2023/08/25 11:00:18;;;;;;;;;;;24.10;89.10;;;;;;4191717;28;19963;-44
2023/08/25 11:03:01;;;;;;;;;;;24.10;89.20;;;;;;4206134;28;20524;-55
2023/08/25 11:05:43;;;;;;;;;;;24.10;89.60;;;;;;4206685;28;19931;-39
2023/08/25 11:08:25;;;;;;;;;;;24.10;89.40;;;;;;4188929;28;20295;-39
2023/08/25 11:11:14;;;;;;;;;;;24.10;90.10;;;;;;4189536;28;19936;-38
2023/08/25 11:13:56;;;;;;;;;;;24.10;89.60;;;;;;4193047;28;19946;-43
2023/08/25 11:16:38;;;;;;;;;;;24.10;90.00;;;;;;4173374;28;20029;-43
2023/08/25 11:19:19;;;;;;;;;;;24.10;90.20;;;;;;4169266;28;19936;-41
2023/08/25 11:22:03;;;;;;;;;;;24.10;90.30;;;;;;4173409;28;19981;-42
2023/08/25 11:24:45;;;;;;;;;;;24.10;90.50;;;;;;4173045;28;19996;-43
2023/08/25 11:27:28;;;;;;;;;;;24.20;90.50;;;;;;4172917;28;19940;-45
2023/08/25 11:30:09;;;;;;;;;;;24.20;90.50;;;;;;4171925;28;19974;-48
2023/08/25 11:32:50;;;;;;;;;;;24.30;90.50;;;;;;4195283;28;19931;-48
2023/08/25 11:35:31;;;;;;;;;;;24.30;90.50;;;;;;4172745;28;19936;-48
2023/08/25 11:38:13;;;;;;;;;;;24.30;90.50;;;;;;4218329;27;19950;-51
2023/08/25 11:40:57;;;;;;;;;;;24.30;90.40;;;;;;4183814;28;20394;-47
2023/08/25 11:43:39;;;;;;;;;;;24.30;90.50;;;;;;4194379;28;20001;-40
2023/08/25 11:46:20;;;;;;;;;;;24.30;90.40;;;;;;4157576;28;19936;-40
2023/08/25 11:49:00;;;;;;;;;;;24.30;90.40;;;;;;4172706;28;20291;-41
2023/08/25 11:51:41;;;;;;;;;;;24.30;90.30;;;;;;4172562;28;20383;-41
2023/08/25 11:54:22;;;;;;;;;;;24.30;90.30;;;;;;4201164;28;20080;-40
2023/08/25 11:57:04;;;;;;;;;;;24.20;90.30;;;;;;4189268;28;19935;-41
2023/08/25 11:59:47;;;;;;;;;;;24.30;90.70;;;;;;4186205;28;19948;-40
2023/08/25 12:02:28;;;;;;;;;;;24.20;90.20;;;;;;4174092;28;20399;-41
2023/08/25 12:05:09;;;;;;;;;;;24.20;90.30;;;;;;4188897;28;20419;-41
2023/08/25 12:07:51;;;;;;;;;;;24.20;90.30;;;;;;4188700;28;19932;-41
2023/08/25 12:10:34;;;;;;;;;;;24.10;90.20;;;;;;4202926;28;19932;-40
2023/08/25 12:13:15;;;;;;;;;;;24.20;90.30;;;;;;4205710;28;19931;-40
2023/08/25 12:15:58;;;;;;;;;;;24.10;90.20;;;;;;4205294;28;20022;-49
2023/08/25 12:18:38;;;;;;;;;;;24.10;90.30;;;;;;4203909;28;19931;-47
2023/08/25 12:21:20;;;;;;;;;;;24.10;90.30;;;;;;4205649;28;19931;-48
2023/08/25 12:24:01;;;;;;;;;;;24.10;90.40;;;;;;4205595;28;19931;-50
2023/08/25 12:26:42;;;;;;;;;;;24.10;90.40;;;;;;4171587;28;19935;-54
2023/08/25 12:29:23;;;;;;;;;;;24.10;90.50;;;;;;4172182;28;19974;-51
2023/08/25 12:32:07;;;;;;;;;;;24.10;90.50;;;;;;4171064;28;19936;-49
2023/08/25 12:34:48;;;;;;;;;;;24.00;90.50;;;;;;4172566;28;20381;-49
2023/08/25 12:37:30;;;;;;;;;;;24.10;90.60;;;;;;4188547;28;19934;-49
2023/08/25 12:40:11;;;;;;;;;;;24.10;90.60;;;;;;4188551;28;20078;-51
2023/08/25 12:42:53;;;;;;;;;;;24.10;90.60;;;;;;4175258;28;19936;-50
2023/08/25 12:45:35;;;;;;;;;;;24.10;90.60;;;;;;4186904;28;19931;-48
2023/08/25 12:48:17;;;;;;;;;;;24.00;90.60;;;;;;4187847;28;19932;-51
2023/08/25 12:50:57;;;;;;;;;;;24.00;90.60;;;;;;4173310;28;19939;-47
2023/08/25 12:53:38;;;;;;;;;;;24.00;90.50;;;;;;4187216;28;19981;-48
2023/08/25 12:56:19;;;;;;;;;;;24.00;90.50;;;;;;4186508;28;19931;-49
2023/08/25 12:59:02;;;;;;;;;;;24.00;90.60;;;;;;4204532;28;20240;-51
2023/08/25 13:01:43;;;;;;;;;;;24.00;90.70;;;;;;4197193;27;19935;-42
2023/08/25 13:04:26;;;;;;;;;;;24.00;90.70;;;;;;4186135;28;19935;-44
2023/08/25 13:07:06;;;;;;;;;;;24.00;90.70;;;;;;4202690;28;19976;-40
2023/08/25 13:09:47;;;;;;;;;;;24.00;90.80;;;;;;4193945;28;20407;-41
2023/08/25 13:12:28;;;;;;;;;;;23.90;90.70;;;;;;4154962;28;20301;-40
2023/08/25 13:15:10;;;;;;;;;;;24.00;90.80;;;;;;4164184;28;20399;-40
2023/08/25 13:17:51;;;;;;;;;;;24.00;90.80;;;;;;4188634;28;19935;-40
2023/08/25 13:20:34;;;;;;;;;;;24.00;90.80;;;;;;4190557;28;19935;-40
2023/08/25 13:23:15;;;;;;;;;;;24.00;90.90;;;;;;4196409;28;19935;-40
2023/08/25 13:26:10;;;;;;;;;;;23.90;90.90;;;;;;4186226;28;20358;-40
2023/08/25 13:28:51;;;;;;;;;;;24.00;91.30;;;;;;4187620;28;19958;-42
2023/08/25 13:31:31;;;;;;;;;;;23.90;90.90;;;;;;4175861;28;20959;-40
2023/08/25 13:34:12;;;;;;;;;;;23.90;90.90;;;;;;4188655;28;20294;-40
2023/08/25 13:36:55;;;;;;;;;;;23.90;90.90;;;;;;4193036;28;19931;-39
2023/08/25 13:39:38;;;;;;;;;;;23.90;90.90;;;;;;4202449;28;20608;-39
2023/08/25 13:42:19;;;;;;;;;;;23.90;91.00;;;;;;4197262;28;19934;-38
2023/08/25 13:45:00;;;;;;;;;;;23.90;91.00;;;;;;4189966;28;19940;-39
2023/08/25 13:47:41;;;;;;;;;;;23.90;91.00;;;;;;4202491;28;20397;-39
2023/08/25 13:50:22;;;;;;;;;;;23.90;91.00;;;;;;4180576;28;19931;-39
2023/08/25 13:53:05;;;;;;;;;;;23.90;91.00;;;;;;4186304;28;19931;-39
2023/08/25 13:55:46;;;;;;;;;;;23.90;91.00;;;;;;4186953;28;19936;-39
2023/08/25 13:58:26;;;;;;;;;;;23.90;91.00;;;;;;4191535;28;19931;-41
2023/08/25 14:01:08;;;;;;;;;;;23.90;91.00;;;;;;4187998;28;20065;-38
2023/08/25 14:03:48;;;;;;;;;;;23.90;90.90;;;;;;4185405;28;19935;-42
2023/08/25 14:06:30;;;;;;;;;;;23.90;90.90;;;;;;4160173;28;19933;-47
2023/08/25 14:09:12;;;;;;;;;;;23.90;91.30;;;;;;4178753;28;20061;-47
2023/08/25 14:11:52;;;;;;;;;;;23.90;90.90;;;;;;4187727;28;20017;-50
2023/08/25 14:14:33;;;;;;;;;;;23.80;90.90;;;;;;4187640;28;20070;-47
2023/08/25 14:17:14;;;;;;;;;;;23.90;91.30;;;;;;4187612;28;19932;-41
2023/08/25 14:19:55;;;;;;;;;;;23.80;90.80;;;;;;4190718;28;20005;-39
2023/08/25 14:22:36;;;;;;;;;;;23.90;90.90;;;;;;4180274;28;19936;-39
2023/08/25 14:25:18;;;;;;;;;;;23.90;90.90;;;;;;4187462;28;19973;-40
2023/08/25 14:27:59;;;;;;;;;;;23.90;90.90;;;;;;4171034;28;19936;-40
2023/08/25 14:30:40;;;;;;;;;;;23.90;90.90;;;;;;4168118;28;19971;-39
2023/08/25 14:33:21;;;;;;;;;;;23.80;90.80;;;;;;4174978;28;20417;-39
2023/08/25 14:36:02;;;;;;;;;;;23.80;90.90;;;;;;4172227;28;19932;-41
2023/08/25 14:38:43;;;;;;;;;;;23.80;90.90;;;;;;4153985;28;20400;-39
2023/08/25 14:41:25;;;;;;;;;;;23.80;90.90;;;;;;4156514;28;19951;-47
2023/08/25 14:44:07;;;;;;;;;;;23.80;91.20;;;;;;4175999;28;19936;-48
2023/08/25 14:46:48;;;;;;;;;;;23.80;90.80;;;;;;4170368;28;20284;-47
2023/08/25 14:49:28;;;;;;;;;;;23.80;90.90;;;;;;4170600;28;19952;-49
2023/08/25 14:52:09;;;;;;;;;;;23.80;90.80;;;;;;4187031;28;20016;-51
2023/08/25 14:54:49;;;;;;;;;;;23.80;90.80;;;;;;4157055;28;20055;-46
2023/08/25 14:57:32;;;;;;;;;;;23.80;90.80;;;;;;4170247;28;20058;-48
2023/08/25 15:00:13;;;;;;;;;;;23.90;90.90;;;;;;4199108;28;20329;-48
2023/08/25 15:02:54;;;;;;;;;;;23.90;90.80;;;;;;4206691;28;19946;-48
2023/08/25 15:05:36;;;;;;;;;;;23.90;90.80;;;;;;4205700;28;19931;-49
2023/08/25 15:08:16;;;;;;;;;;;23.90;91.20;;;;;;4206398;28;20073;-49
2023/08/25 15:10:57;;;;;;;;;;;23.90;90.80;;;;;;4205519;28;19931;-50
2023/08/25 15:13:39;;;;;;;;;;;23.90;90.90;;;;;;4200428;28;20490;-47
2023/08/25 15:16:19;;;;;;;;;;;23.90;90.90;;;;;;4208214;27;19935;-48
2023/08/25 15:19:02;;;;;;;;;;;23.90;90.90;;;;;;4194442;28;19935;-48
2023/08/25 15:21:42;;;;;;;;;;;23.90;90.90;;;;;;4189324;28;20299;-46
2023/08/25 15:24:23;;;;;;;;;;;23.90;90.90;;;;;;4205275;28;20066;-39
2023/08/25 15:27:04;;;;;;;;;;;23.90;90.90;;;;;;4185673;28;19935;-38
2023/08/25 15:29:47;;;;;;;;;;;23.90;90.90;;;;;;4175965;28;20454;-38
2023/08/25 15:32:31;;;;;;;;;;;23.90;90.90;;;;;;4171673;28;19946;-38
2023/08/25 15:35:12;;;;;;;;;;;23.90;90.90;;;;;;4169892;28;20406;-39
2023/08/25 15:37:53;;;;;;;;;;;23.90;90.90;;;;;;4173535;28;20401;-39
2023/08/25 15:40:35;;;;;;;;;;;23.90;90.90;;;;;;4172175;28;19935;-39